sensor_id;sensor_type;location;lat;lon;timestamp;temperature;humidity
70154;DHT22;57519;51.494;-2.626;2022-11-25T00:00:47;8.17;86.03
70154;DHT22;57519;51.494;-2.626;2022-11-25T00:03:12;8.22;85.73
70154;DHT22;57519;51.494;-2.626;2022-11-25T00:05:38;8.21;85.87
70154;DHT22;57519;51.494;-2.626;2022-11-25T00:08:05;8.16;86.14
70154;DHT22;57519;51.494;-2.626;2022-11-25T00:10:30;8.23;85.53
70154;DHT22;57519;51.494;-2.626;2022-11-25T00:12:55;8.30;85.79
70154;DHT22;57519;51.494;-2.626;2022-11-25T00:15:21;8.44;84.88
70154;DHT22;57519;51.494;-2.626;2022-11-25T00:17:46;8.49;85.16
70154;DHT22;57519;51.494;-2.626;2022-11-25T00:20:12;8.56;84.77
70154;DHT22;57519;51.494;-2.626;2022-11-25T00:22:37;8.70;84.40
70154;DHT22;57519;51.494;-2.626;2022-11-25T00:25:03;8.68;84.72
70154;DHT22;57519;51.494;-2.626;2022-11-25T00:27:28;8.75;84.85
70154;DHT22;57519;51.494;-2.626;2022-11-25T00:29:53;8.82;85.48
70154;DHT22;57519;51.494;-2.626;2022-11-25T00:32:19;8.65;86.03
70154;DHT22;57519;51.494;-2.626;2022-11-25T00:34:44;8.51;86.64
70154;DHT22;57519;51.494;-2.626;2022-11-25T00:37:10;8.30;87.05
70154;DHT22;57519;51.494;-2.626;2022-11-25T00:39:35;8.32;86.97
70154;DHT22;57519;51.494;-2.626;2022-11-25T00:42:00;8.39;87.22
70154;DHT22;57519;51.494;-2.626;2022-11-25T00:44:44;8.19;87.36
70154;DHT22;57519;51.494;-2.626;2022-11-25T00:47:15;8.29;87.28
70154;DHT22;57519;51.494;-2.626;2022-11-25T00:49:50;8.25;87.84
70154;DHT22;57519;51.494;-2.626;2022-11-25T00:52:17;8.30;87.73
70154;DHT22;57519;51.494;-2.626;2022-11-25T00:54:44;8.34;87.73
70154;DHT22;57519;51.494;-2.626;2022-11-25T00:57:11;8.36;87.93
70154;DHT22;57519;51.494;-2.626;2022-11-25T00:59:36;8.36;88.01
70154;DHT22;57519;51.494;-2.626;2022-11-25T01:02:01;8.37;88.40
70154;DHT22;57519;51.494;-2.626;2022-11-25T01:04:27;8.50;88.26
70154;DHT22;57519;51.494;-2.626;2022-11-25T01:06:53;8.54;87.98
70154;DHT22;57519;51.494;-2.626;2022-11-25T01:09:21;8.59;88.04
70154;DHT22;57519;51.494;-2.626;2022-11-25T01:11:49;8.64;87.74
70154;DHT22;57519;51.494;-2.626;2022-11-25T01:14:15;8.81;87.63
70154;DHT22;57519;51.494;-2.626;2022-11-25T01:16:40;8.87;87.46
70154;DHT22;57519;51.494;-2.626;2022-11-25T01:19:06;9.02;87.12
70154;DHT22;57519;51.494;-2.626;2022-11-25T01:21:33;9.08;88.35
70154;DHT22;57519;51.494;-2.626;2022-11-25T01:24:00;8.93;90.18
70154;DHT22;57519;51.494;-2.626;2022-11-25T01:26:26;8.78;91.45
70154;DHT22;57519;51.494;-2.626;2022-11-25T01:28:58;8.68;92.29
70154;DHT22;57519;51.494;-2.626;2022-11-25T01:31:24;8.65;92.63
70154;DHT22;57519;51.494;-2.626;2022-11-25T01:33:55;8.57;92.87
70154;DHT22;57519;51.494;-2.626;2022-11-25T01:36:22;8.51;93.20
70154;DHT22;57519;51.494;-2.626;2022-11-25T01:38:52;8.49;93.51
70154;DHT22;57519;51.494;-2.626;2022-11-25T01:41:19;8.57;93.49
70154;DHT22;57519;51.494;-2.626;2022-11-25T01:47:11;8.49;93.67
70154;DHT22;57519;51.494;-2.626;2022-11-25T01:49:49;8.49;93.55
70154;DHT22;57519;51.494;-2.626;2022-11-25T01:52:41;8.47;93.69
70154;DHT22;57519;51.494;-2.626;2022-11-25T01:58:10;8.56;93.51
70154;DHT22;57519;51.494;-2.626;2022-11-25T02:00:27;8.53;93.50
70154;DHT22;57519;51.494;-2.626;2022-11-25T02:02:54;8.51;93.34
70154;DHT22;57519;51.494;-2.626;2022-11-25T02:05:47;8.60;93.22
70154;DHT22;57519;51.494;-2.626;2022-11-25T02:08:15;8.57;93.28
70154;DHT22;57519;51.494;-2.626;2022-11-25T02:10:42;8.56;93.31
70154;DHT22;57519;51.494;-2.626;2022-11-25T02:13:08;8.56;93.37
70154;DHT22;57519;51.494;-2.626;2022-11-25T02:15:34;8.56;93.58
70154;DHT22;57519;51.494;-2.626;2022-11-25T02:18:00;8.50;94.04
70154;DHT22;57519;51.494;-2.626;2022-11-25T02:20:26;8.46;94.34
70154;DHT22;57519;51.494;-2.626;2022-11-25T02:25:32;8.50;94.54
70154;DHT22;57519;51.494;-2.626;2022-11-25T02:28:10;8.56;94.24
70154;DHT22;57519;51.494;-2.626;2022-11-25T02:30:36;8.60;94.46
70154;DHT22;57519;51.494;-2.626;2022-11-25T02:33:02;8.51;94.39
70154;DHT22;57519;51.494;-2.626;2022-11-25T02:35:32;8.46;94.67
70154;DHT22;57519;51.494;-2.626;2022-11-25T02:40:46;8.44;95.04
70154;DHT22;57519;51.494;-2.626;2022-11-25T02:43:13;8.44;95.29
70154;DHT22;57519;51.494;-2.626;2022-11-25T02:45:52;8.39;95.32
70154;DHT22;57519;51.494;-2.626;2022-11-25T02:48:19;8.26;95.38
70154;DHT22;57519;51.494;-2.626;2022-11-25T02:50:44;8.26;95.57
70154;DHT22;57519;51.494;-2.626;2022-11-25T02:53:09;8.28;95.61
70154;DHT22;57519;51.494;-2.626;2022-11-25T02:55:35;8.28;95.66
70154;DHT22;57519;51.494;-2.626;2022-11-25T02:58:00;8.34;95.62
70154;DHT22;57519;51.494;-2.626;2022-11-25T03:00:28;8.40;95.62
70154;DHT22;57519;51.494;-2.626;2022-11-25T03:02:53;8.39;95.48
70154;DHT22;57519;51.494;-2.626;2022-11-25T03:05:21;8.47;95.30
70154;DHT22;57519;51.494;-2.626;2022-11-25T03:07:46;8.41;95.24
70154;DHT22;57519;51.494;-2.626;2022-11-25T03:10:12;8.37;95.11
70154;DHT22;57519;51.494;-2.626;2022-11-25T03:12:37;8.36;94.83
70154;DHT22;57519;51.494;-2.626;2022-11-25T03:15:03;8.32;94.67
70154;DHT22;57519;51.494;-2.626;2022-11-25T03:17:28;8.22;94.95
70154;DHT22;57519;51.494;-2.626;2022-11-25T03:19:54;8.22;95.14
70154;DHT22;57519;51.494;-2.626;2022-11-25T03:22:19;8.21;95.20
70154;DHT22;57519;51.494;-2.626;2022-11-25T03:24:44;8.22;95.24
70154;DHT22;57519;51.494;-2.626;2022-11-25T03:27:10;8.23;95.12
70154;DHT22;57519;51.494;-2.626;2022-11-25T03:29:35;8.21;94.97
70154;DHT22;57519;51.494;-2.626;2022-11-25T03:32:01;8.05;94.90
70154;DHT22;57519;51.494;-2.626;2022-11-25T03:34:26;7.89;95.04
70154;DHT22;57519;51.494;-2.626;2022-11-25T03:36:51;7.75;95.24
70154;DHT22;57519;51.494;-2.626;2022-11-25T03:39:17;7.65;95.52
70154;DHT22;57519;51.494;-2.626;2022-11-25T03:41:42;7.60;95.75
70154;DHT22;57519;51.494;-2.626;2022-11-25T03:44:08;7.57;95.89
70154;DHT22;57519;51.494;-2.626;2022-11-25T03:46:33;7.57;96.06
70154;DHT22;57519;51.494;-2.626;2022-11-25T03:48:58;7.51;96.17
70154;DHT22;57519;51.494;-2.626;2022-11-25T03:51:24;7.50;96.29
70154;DHT22;57519;51.494;-2.626;2022-11-25T03:53:49;7.67;96.46
70154;DHT22;57519;51.494;-2.626;2022-11-25T03:56:15;7.64;96.26
70154;DHT22;57519;51.494;-2.626;2022-11-25T03:58:40;7.70;96.11
70154;DHT22;57519;51.494;-2.626;2022-11-25T04:01:06;7.64;95.92
70154;DHT22;57519;51.494;-2.626;2022-11-25T04:03:32;7.61;95.80
70154;DHT22;57519;51.494;-2.626;2022-11-25T04:05:57;7.58;95.56
70154;DHT22;57519;51.494;-2.626;2022-11-25T04:08:23;7.55;95.31
70154;DHT22;57519;51.494;-2.626;2022-11-25T04:10:49;7.60;94.86
70154;DHT22;57519;51.494;-2.626;2022-11-25T04:13:15;7.55;94.66
70154;DHT22;57519;51.494;-2.626;2022-11-25T04:15:47;7.50;94.52
70154;DHT22;57519;51.494;-2.626;2022-11-25T04:18:14;7.51;94.46
70154;DHT22;57519;51.494;-2.626;2022-11-25T04:20:39;7.54;94.33
70154;DHT22;57519;51.494;-2.626;2022-11-25T04:23:05;7.38;94.37
70154;DHT22;57519;51.494;-2.626;2022-11-25T04:25:31;7.38;94.43
70154;DHT22;57519;51.494;-2.626;2022-11-25T04:27:57;7.46;94.30
70154;DHT22;57519;51.494;-2.626;2022-11-25T04:30:22;7.38;94.36
70154;DHT22;57519;51.494;-2.626;2022-11-25T04:32:48;7.27;94.46
70154;DHT22;57519;51.494;-2.626;2022-11-25T04:35:13;7.30;94.61
70154;DHT22;57519;51.494;-2.626;2022-11-25T04:37:39;7.16;94.89
70154;DHT22;57519;51.494;-2.626;2022-11-25T04:40:05;7.12;95.14
70154;DHT22;57519;51.494;-2.626;2022-11-25T04:42:30;7.05;95.32
70154;DHT22;57519;51.494;-2.626;2022-11-25T04:44:59;6.71;95.26
70154;DHT22;57519;51.494;-2.626;2022-11-25T04:47:25;6.42;95.27
70154;DHT22;57519;51.494;-2.626;2022-11-25T04:49:51;6.19;95.32
70154;DHT22;57519;51.494;-2.626;2022-11-25T04:52:16;5.98;95.48
70154;DHT22;57519;51.494;-2.626;2022-11-25T04:54:42;5.83;95.70
70154;DHT22;57519;51.494;-2.626;2022-11-25T04:57:11;5.69;95.89
70154;DHT22;57519;51.494;-2.626;2022-11-25T04:59:37;5.50;96.06
70154;DHT22;57519;51.494;-2.626;2022-11-25T05:02:26;5.38;96.20
70154;DHT22;57519;51.494;-2.626;2022-11-25T05:04:54;5.27;96.33
70154;DHT22;57519;51.494;-2.626;2022-11-25T05:07:22;5.22;96.44
70154;DHT22;57519;51.494;-2.626;2022-11-25T05:09:47;5.17;96.51
70154;DHT22;57519;51.494;-2.626;2022-11-25T05:12:17;5.09;96.55
70154;DHT22;57519;51.494;-2.626;2022-11-25T05:14:43;5.03;96.62
70154;DHT22;57519;51.494;-2.626;2022-11-25T05:17:20;4.97;96.67
70154;DHT22;57519;51.494;-2.626;2022-11-25T05:19:46;4.93;96.79
70154;DHT22;57519;51.494;-2.626;2022-11-25T05:22:17;4.95;96.92
70154;DHT22;57519;51.494;-2.626;2022-11-25T05:24:43;4.97;97.07
70154;DHT22;57519;51.494;-2.626;2022-11-25T05:27:08;4.93;97.10
70154;DHT22;57519;51.494;-2.626;2022-11-25T05:29:34;4.83;97.15
70154;DHT22;57519;51.494;-2.626;2022-11-25T05:31:59;4.71;97.17
70154;DHT22;57519;51.494;-2.626;2022-11-25T05:34:25;4.62;97.17
70154;DHT22;57519;51.494;-2.626;2022-11-25T05:36:50;4.59;97.19
70154;DHT22;57519;51.494;-2.626;2022-11-25T05:39:16;4.49;97.21
70154;DHT22;57519;51.494;-2.626;2022-11-25T05:41:42;4.44;97.23
70154;DHT22;57519;51.494;-2.626;2022-11-25T05:44:07;4.37;97.21
70154;DHT22;57519;51.494;-2.626;2022-11-25T05:46:32;4.27;97.24
70154;DHT22;57519;51.494;-2.626;2022-11-25T05:48:58;4.21;97.29
70154;DHT22;57519;51.494;-2.626;2022-11-25T05:51:24;4.21;97.38
70154;DHT22;57519;51.494;-2.626;2022-11-25T05:53:50;4.20;97.45
70154;DHT22;57519;51.494;-2.626;2022-11-25T05:56:16;4.22;97.52
70154;DHT22;57519;51.494;-2.626;2022-11-25T05:58:42;4.22;97.54
70154;DHT22;57519;51.494;-2.626;2022-11-25T06:01:08;4.22;97.59
70154;DHT22;57519;51.494;-2.626;2022-11-25T06:03:35;4.20;97.64
70154;DHT22;57519;51.494;-2.626;2022-11-25T06:06:00;4.17;97.68
70154;DHT22;57519;51.494;-2.626;2022-11-25T06:08:27;4.14;97.71
70154;DHT22;57519;51.494;-2.626;2022-11-25T06:10:53;4.10;97.79
70154;DHT22;57519;51.494;-2.626;2022-11-25T06:13:19;4.07;97.76
70154;DHT22;57519;51.494;-2.626;2022-11-25T06:15:45;4.03;97.77
70154;DHT22;57519;51.494;-2.626;2022-11-25T06:18:12;3.96;97.79
70154;DHT22;57519;51.494;-2.626;2022-11-25T06:20:38;3.96;97.79
70154;DHT22;57519;51.494;-2.626;2022-11-25T06:23:04;3.89;97.77
70154;DHT22;57519;51.494;-2.626;2022-11-25T06:25:30;3.86;97.81
70154;DHT22;57519;51.494;-2.626;2022-11-25T06:27:56;3.76;97.80
70154;DHT22;57519;51.494;-2.626;2022-11-25T06:30:21;3.73;97.79
70154;DHT22;57519;51.494;-2.626;2022-11-25T06:32:47;3.65;97.79
70154;DHT22;57519;51.494;-2.626;2022-11-25T06:35:12;3.61;97.76
70154;DHT22;57519;51.494;-2.626;2022-11-25T06:37:38;3.59;97.75
70154;DHT22;57519;51.494;-2.626;2022-11-25T06:40:05;3.54;97.74
70154;DHT22;57519;51.494;-2.626;2022-11-25T06:42:30;3.51;97.76
70154;DHT22;57519;51.494;-2.626;2022-11-25T06:44:56;3.45;97.77
70154;DHT22;57519;51.494;-2.626;2022-11-25T06:47:21;3.52;97.86
70154;DHT22;57519;51.494;-2.626;2022-11-25T06:49:47;3.48;97.87
70154;DHT22;57519;51.494;-2.626;2022-11-25T06:52:13;3.44;97.87
70154;DHT22;57519;51.494;-2.626;2022-11-25T06:54:38;3.52;97.90
70154;DHT22;57519;51.494;-2.626;2022-11-25T06:57:10;3.56;97.96
70154;DHT22;57519;51.494;-2.626;2022-11-25T06:59:35;3.54;97.97
70154;DHT22;57519;51.494;-2.626;2022-11-25T07:02:01;3.48;98.01
70154;DHT22;57519;51.494;-2.626;2022-11-25T07:04:26;3.41;97.96
70154;DHT22;57519;51.494;-2.626;2022-11-25T07:06:52;3.35;97.99
70154;DHT22;57519;51.494;-2.626;2022-11-25T07:09:18;3.24;97.96
70154;DHT22;57519;51.494;-2.626;2022-11-25T07:11:44;3.20;97.99
70154;DHT22;57519;51.494;-2.626;2022-11-25T07:14:14;3.18;97.99
70154;DHT22;57519;51.494;-2.626;2022-11-25T07:16:42;3.17;97.99
70154;DHT22;57519;51.494;-2.626;2022-11-25T07:19:10;3.18;98.00
70154;DHT22;57519;51.494;-2.626;2022-11-25T07:21:36;3.17;98.04
70154;DHT22;57519;51.494;-2.626;2022-11-25T07:24:03;3.17;98.06
70154;DHT22;57519;51.494;-2.626;2022-11-25T07:26:31;3.30;98.10
70154;DHT22;57519;51.494;-2.626;2022-11-25T07:28:59;3.55;98.21
70154;DHT22;57519;51.494;-2.626;2022-11-25T07:31:30;3.59;98.22
70154;DHT22;57519;51.494;-2.626;2022-11-25T07:33:59;3.61;98.22
70154;DHT22;57519;51.494;-2.626;2022-11-25T07:36:26;3.59;98.17
70154;DHT22;57519;51.494;-2.626;2022-11-25T07:38:51;3.45;98.13
70154;DHT22;57519;51.494;-2.626;2022-11-25T07:41:21;3.38;98.11
70154;DHT22;57519;51.494;-2.626;2022-11-25T07:43:52;3.32;98.07
70154;DHT22;57519;51.494;-2.626;2022-11-25T07:46:20;3.76;98.24
70154;DHT22;57519;51.494;-2.626;2022-11-25T07:48:47;3.70;98.26
70154;DHT22;57519;51.494;-2.626;2022-11-25T07:51:20;3.63;98.27
70154;DHT22;57519;51.494;-2.626;2022-11-25T07:53:47;3.56;98.22
70154;DHT22;57519;51.494;-2.626;2022-11-25T07:56:14;3.69;98.19
70154;DHT22;57519;51.494;-2.626;2022-11-25T07:58:41;3.79;98.13
70154;DHT22;57519;51.494;-2.626;2022-11-25T08:01:08;3.97;98.14
70154;DHT22;57519;51.494;-2.626;2022-11-25T08:03:35;4.22;98.13
70154;DHT22;57519;51.494;-2.626;2022-11-25T08:06:06;5.26;98.20
70154;DHT22;57519;51.494;-2.626;2022-11-25T08:08:33;6.09;97.93
70154;DHT22;57519;51.494;-2.626;2022-11-25T08:10:59;6.40;97.38
70154;DHT22;57519;51.494;-2.626;2022-11-25T08:13:24;6.78;96.41
70154;DHT22;57519;51.494;-2.626;2022-11-25T08:15:50;6.84;95.84
70154;DHT22;57519;51.494;-2.626;2022-11-25T08:18:16;6.69;95.57
70154;DHT22;57519;51.494;-2.626;2022-11-25T08:20:42;6.50;95.59
70154;DHT22;57519;51.494;-2.626;2022-11-25T08:23:07;6.29;95.62
70154;DHT22;57519;51.494;-2.626;2022-11-25T08:25:38;6.07;95.65
70154;DHT22;57519;51.494;-2.626;2022-11-25T08:28:04;5.89;95.75
70154;DHT22;57519;51.494;-2.626;2022-11-25T08:30:29;5.71;95.80
70154;DHT22;57519;51.494;-2.626;2022-11-25T08:32:55;5.62;95.92
70154;DHT22;57519;51.494;-2.626;2022-11-25T08:35:22;5.51;96.02
70154;DHT22;57519;51.494;-2.626;2022-11-25T08:37:48;5.40;96.10
70154;DHT22;57519;51.494;-2.626;2022-11-25T08:40:14;5.30;96.21
70154;DHT22;57519;51.494;-2.626;2022-11-25T08:42:39;5.28;96.32
70154;DHT22;57519;51.494;-2.626;2022-11-25T08:45:06;5.23;96.35
70154;DHT22;57519;51.494;-2.626;2022-11-25T08:47:32;5.16;96.35
70154;DHT22;57519;51.494;-2.626;2022-11-25T08:49:58;5.22;96.50
70154;DHT22;57519;51.494;-2.626;2022-11-25T08:52:23;5.19;96.55
70154;DHT22;57519;51.494;-2.626;2022-11-25T08:54:49;5.19;96.57
70154;DHT22;57519;51.494;-2.626;2022-11-25T08:57:15;5.22;96.54
70154;DHT22;57519;51.494;-2.626;2022-11-25T08:59:40;5.19;96.52
70154;DHT22;57519;51.494;-2.626;2022-11-25T09:02:07;5.20;96.53
70154;DHT22;57519;51.494;-2.626;2022-11-25T09:04:34;5.23;96.58
70154;DHT22;57519;51.494;-2.626;2022-11-25T09:07:00;5.28;96.72
70154;DHT22;57519;51.494;-2.626;2022-11-25T09:09:26;5.37;96.80
70154;DHT22;57519;51.494;-2.626;2022-11-25T09:11:51;5.48;96.88
70154;DHT22;57519;51.494;-2.626;2022-11-25T09:14:17;5.66;97.09
70154;DHT22;57519;51.494;-2.626;2022-11-25T09:16:42;5.88;97.32
70154;DHT22;57519;51.494;-2.626;2022-11-25T09:19:07;5.91;97.20
70154;DHT22;57519;51.494;-2.626;2022-11-25T09:21:33;5.93;97.14
70154;DHT22;57519;51.494;-2.626;2022-11-25T09:23:58;6.00;97.04
70154;DHT22;57519;51.494;-2.626;2022-11-25T09:26:29;6.13;97.02
70154;DHT22;57519;51.494;-2.626;2022-11-25T09:28:55;6.30;97.06
70154;DHT22;57519;51.494;-2.626;2022-11-25T09:31:22;6.36;97.07
70154;DHT22;57519;51.494;-2.626;2022-11-25T09:33:47;6.41;96.95
70154;DHT22;57519;51.494;-2.626;2022-11-25T09:36:14;6.50;96.87
70154;DHT22;57519;51.494;-2.626;2022-11-25T09:38:40;6.54;96.81
70154;DHT22;57519;51.494;-2.626;2022-11-25T09:46:58;7.06;96.69
70154;DHT22;57519;51.494;-2.626;2022-11-25T09:50:02;7.22;96.62
70154;DHT22;57519;51.494;-2.626;2022-11-25T09:52:44;7.24;96.46
70154;DHT22;57519;51.494;-2.626;2022-11-25T09:55:16;7.26;96.26
70154;DHT22;57519;51.494;-2.626;2022-11-25T09:58:08;7.47;96.15
70154;DHT22;57519;51.494;-2.626;2022-11-25T10:00:44;7.54;95.97
70154;DHT22;57519;51.494;-2.626;2022-11-25T10:08:46;7.84;95.47
70154;DHT22;57519;51.494;-2.626;2022-11-25T10:14:02;8.17;94.55
70154;DHT22;57519;51.494;-2.626;2022-11-25T10:21:54;8.37;93.79
70154;DHT22;57519;51.494;-2.626;2022-11-25T10:24:19;8.60;92.93
70154;DHT22;57519;51.494;-2.626;2022-11-25T10:26:57;8.64;92.71
70154;DHT22;57519;51.494;-2.626;2022-11-25T10:29:29;8.65;92.55
70154;DHT22;57519;51.494;-2.626;2022-11-25T10:32:23;8.65;92.64
70154;DHT22;57519;51.494;-2.626;2022-11-25T10:35:03;8.68;92.67
70154;DHT22;57519;51.494;-2.626;2022-11-25T10:37:35;8.89;92.24
70154;DHT22;57519;51.494;-2.626;2022-11-25T10:40:02;8.91;92.11
70154;DHT22;57519;51.494;-2.626;2022-11-25T10:42:28;8.97;92.03
70154;DHT22;57519;51.494;-2.626;2022-11-25T10:44:54;9.08;91.69
70154;DHT22;57519;51.494;-2.626;2022-11-25T10:50:25;9.19;91.94
70154;DHT22;57519;51.494;-2.626;2022-11-25T10:55:21;9.37;90.91
70154;DHT22;57519;51.494;-2.626;2022-11-25T10:57:49;9.36;91.16
70154;DHT22;57519;51.494;-2.626;2022-11-25T11:00:29;9.32;91.14
70154;DHT22;57519;51.494;-2.626;2022-11-25T11:02:56;9.53;90.77
70154;DHT22;57519;51.494;-2.626;2022-11-25T11:05:24;9.50;91.22
70154;DHT22;57519;51.494;-2.626;2022-11-25T11:08:27;9.67;90.33
70154;DHT22;57519;51.494;-2.626;2022-11-25T11:11:29;9.63;90.51
70154;DHT22;57519;51.494;-2.626;2022-11-25T11:13:58;9.70;90.46
70154;DHT22;57519;51.494;-2.626;2022-11-25T11:16:37;9.71;90.51
70154;DHT22;57519;51.494;-2.626;2022-11-25T11:19:03;9.74;90.46
70154;DHT22;57519;51.494;-2.626;2022-11-25T11:21:34;9.69;90.83
70154;DHT22;57519;51.494;-2.626;2022-11-25T11:24:01;9.83;90.13
70154;DHT22;57519;51.494;-2.626;2022-11-25T11:26:30;9.83;90.63
70154;DHT22;57519;51.494;-2.626;2022-11-25T11:29:14;9.93;90.39
70154;DHT22;57519;51.494;-2.626;2022-11-25T11:31:48;10.11;89.56
70154;DHT22;57519;51.494;-2.626;2022-11-25T11:37:41;10.09;90.35
70154;DHT22;57519;51.494;-2.626;2022-11-25T11:48:20;10.25;90.53
70154;DHT22;57519;51.494;-2.626;2022-11-25T11:53:45;10.60;88.55
70154;DHT22;57519;51.494;-2.626;2022-11-25T12:04:27;10.77;87.71
70154;DHT22;57519;51.494;-2.626;2022-11-25T12:07:14;10.87;87.16
70154;DHT22;57519;51.494;-2.626;2022-11-25T12:09:56;11.10;85.11
70154;DHT22;57519;51.494;-2.626;2022-11-25T12:12:34;11.14;86.12
70154;DHT22;57519;51.494;-2.626;2022-11-25T12:15:08;11.01;87.40
70154;DHT22;57519;51.494;-2.626;2022-11-25T12:17:44;10.87;86.69
70154;DHT22;57519;51.494;-2.626;2022-11-25T12:20:16;10.93;86.12
70154;DHT22;57519;51.494;-2.626;2022-11-25T12:22:49;11.35;84.23
70154;DHT22;57519;51.494;-2.626;2022-11-25T12:25:22;11.66;83.23
70154;DHT22;57519;51.494;-2.626;2022-11-25T12:30:33;11.63;83.29
70154;DHT22;57519;51.494;-2.626;2022-11-25T12:33:18;11.67;82.59
70154;DHT22;57519;51.494;-2.626;2022-11-25T12:41:15;11.93;82.18
70154;DHT22;57519;51.494;-2.626;2022-11-25T12:44:06;12.08;80.97
70154;DHT22;57519;51.494;-2.626;2022-11-25T12:46:37;12.10;80.49
70154;DHT22;57519;51.494;-2.626;2022-11-25T12:49:06;12.03;81.21
70154;DHT22;57519;51.494;-2.626;2022-11-25T13:03:24;11.76;82.94
70154;DHT22;57519;51.494;-2.626;2022-11-25T13:08:56;11.67;82.11
70154;DHT22;57519;51.494;-2.626;2022-11-25T13:17:00;11.82;81.03
70154;DHT22;57519;51.494;-2.626;2022-11-25T13:19:26;11.84;81.75
70154;DHT22;57519;51.494;-2.626;2022-11-25T13:22:04;11.98;80.60
70154;DHT22;57519;51.494;-2.626;2022-11-25T13:24:48;11.91;80.95
70154;DHT22;57519;51.494;-2.626;2022-11-25T13:29:54;11.87;80.12
70154;DHT22;57519;51.494;-2.626;2022-11-25T13:32:31;11.87;79.97
70154;DHT22;57519;51.494;-2.626;2022-11-25T13:37:51;11.91;78.77
70154;DHT22;57519;51.494;-2.626;2022-11-25T13:42:49;11.91;79.76
70154;DHT22;57519;51.494;-2.626;2022-11-25T13:45:31;11.80;80.62
70154;DHT22;57519;51.494;-2.626;2022-11-25T13:48:28;11.80;80.97
70154;DHT22;57519;51.494;-2.626;2022-11-25T13:51:22;11.83;80.73
70154;DHT22;57519;51.494;-2.626;2022-11-25T13:53:50;11.75;81.00
70154;DHT22;57519;51.494;-2.626;2022-11-25T13:56:24;11.61;81.97
70154;DHT22;57519;51.494;-2.626;2022-11-25T14:01:34;11.73;81.10
70154;DHT22;57519;51.494;-2.626;2022-11-25T14:04:03;11.77;80.82
70154;DHT22;57519;51.494;-2.626;2022-11-25T14:06:35;11.72;81.01
70154;DHT22;57519;51.494;-2.626;2022-11-25T14:09:15;11.66;81.80
70154;DHT22;57519;51.494;-2.626;2022-11-25T14:12:06;11.51;82.36
70154;DHT22;57519;51.494;-2.626;2022-11-25T14:20:27;11.56;81.58
70154;DHT22;57519;51.494;-2.626;2022-11-25T14:23:07;11.45;81.99
70154;DHT22;57519;51.494;-2.626;2022-11-25T14:25:50;11.40;82.12
70154;DHT22;57519;51.494;-2.626;2022-11-25T14:30:51;11.35;82.19
70154;DHT22;57519;51.494;-2.626;2022-11-25T14:33:22;11.34;82.12
70154;DHT22;57519;51.494;-2.626;2022-11-25T14:35:54;11.24;82.60
70154;DHT22;57519;51.494;-2.626;2022-11-25T14:38:37;11.22;82.58
70154;DHT22;57519;51.494;-2.626;2022-11-25T14:41:12;11.12;83.24
70154;DHT22;57519;51.494;-2.626;2022-11-25T14:43:45;11.11;83.10
70154;DHT22;57519;51.494;-2.626;2022-11-25T14:46:20;11.19;82.32
70154;DHT22;57519;51.494;-2.626;2022-11-25T14:48:59;11.15;82.76
70154;DHT22;57519;51.494;-2.626;2022-11-25T14:51:26;11.17;82.51
70154;DHT22;57519;51.494;-2.626;2022-11-25T14:53:52;11.07;82.99
70154;DHT22;57519;51.494;-2.626;2022-11-25T14:56:25;10.96;83.26
70154;DHT22;57519;51.494;-2.626;2022-11-25T14:58:53;11.01;82.99
70154;DHT22;57519;51.494;-2.626;2022-11-25T15:01:24;10.90;83.50
70154;DHT22;57519;51.494;-2.626;2022-11-25T15:03:59;10.85;83.50
70154;DHT22;57519;51.494;-2.626;2022-11-25T15:06:27;10.93;83.13
70154;DHT22;57519;51.494;-2.626;2022-11-25T15:08:55;10.76;83.86
70154;DHT22;57519;51.494;-2.626;2022-11-25T15:11:23;10.66;84.29
70154;DHT22;57519;51.494;-2.626;2022-11-25T15:13:57;10.62;84.27
70154;DHT22;57519;51.494;-2.626;2022-11-25T15:16:43;10.64;84.19
70154;DHT22;57519;51.494;-2.626;2022-11-25T15:19:20;10.64;84.10
70154;DHT22;57519;51.494;-2.626;2022-11-25T15:22:01;10.74;84.11
70154;DHT22;57519;51.494;-2.626;2022-11-25T15:24:33;10.90;83.23
70154;DHT22;57519;51.494;-2.626;2022-11-25T15:27:14;10.83;83.64
70154;DHT22;57519;51.494;-2.626;2022-11-25T15:29:41;10.83;83.16
70154;DHT22;57519;51.494;-2.626;2022-11-25T15:32:34;10.70;83.40
70154;DHT22;57519;51.494;-2.626;2022-11-25T15:35:18;10.49;83.80
70154;DHT22;57519;51.494;-2.626;2022-11-25T15:37:43;10.45;84.32
70154;DHT22;57519;51.494;-2.626;2022-11-25T15:40:32;10.42;84.10
70154;DHT22;57519;51.494;-2.626;2022-11-25T15:42:59;10.28;84.89
70154;DHT22;57519;51.494;-2.626;2022-11-25T15:45:31;10.31;84.61
70154;DHT22;57519;51.494;-2.626;2022-11-25T15:47:58;10.36;84.42
70154;DHT22;57519;51.494;-2.626;2022-11-25T15:50:25;10.26;84.98
70154;DHT22;57519;51.494;-2.626;2022-11-25T15:52:55;10.05;85.68
70154;DHT22;57519;51.494;-2.626;2022-11-25T15:55:35;10.08;85.56
70154;DHT22;57519;51.494;-2.626;2022-11-25T15:58:09;9.94;86.18
70154;DHT22;57519;51.494;-2.626;2022-11-25T16:00:37;9.95;86.19
70154;DHT22;57519;51.494;-2.626;2022-11-25T16:03:03;9.84;86.60
70154;DHT22;57519;51.494;-2.626;2022-11-25T16:05:51;9.83;86.62
70154;DHT22;57519;51.494;-2.626;2022-11-25T16:13:26;9.97;86.24
70154;DHT22;57519;51.494;-2.626;2022-11-25T16:21:24;10.06;85.34
70154;DHT22;57519;51.494;-2.626;2022-11-25T16:24:27;9.98;85.70
70154;DHT22;57519;51.494;-2.626;2022-11-25T16:26:55;9.95;85.87
70154;DHT22;57519;51.494;-2.626;2022-11-25T16:29:33;9.87;86.23
70154;DHT22;57519;51.494;-2.626;2022-11-25T16:32:00;9.91;85.87
70154;DHT22;57519;51.494;-2.626;2022-11-25T16:34:26;9.91;85.64
70154;DHT22;57519;51.494;-2.626;2022-11-25T16:36:52;9.93;85.85
70154;DHT22;57519;51.494;-2.626;2022-11-25T16:39:18;9.88;85.63
70154;DHT22;57519;51.494;-2.626;2022-11-25T16:41:53;9.80;86.24
70154;DHT22;57519;51.494;-2.626;2022-11-25T16:44:22;9.78;86.41
70154;DHT22;57519;51.494;-2.626;2022-11-25T16:46:47;9.80;86.41
70154;DHT22;57519;51.494;-2.626;2022-11-25T16:49:15;9.77;86.61
70154;DHT22;57519;51.494;-2.626;2022-11-25T16:51:41;9.91;85.79
70154;DHT22;57519;51.494;-2.626;2022-11-25T16:54:06;9.98;85.66
70154;DHT22;57519;51.494;-2.626;2022-11-25T16:56:35;10.04;85.65
70154;DHT22;57519;51.494;-2.626;2022-11-25T16:59:02;9.98;86.46
70154;DHT22;57519;51.494;-2.626;2022-11-25T17:01:28;9.85;87.41
70154;DHT22;57519;51.494;-2.626;2022-11-25T17:03:55;9.78;87.98
70154;DHT22;57519;51.494;-2.626;2022-11-25T17:06:23;9.69;88.69
70154;DHT22;57519;51.494;-2.626;2022-11-25T17:08:51;9.39;89.60
70154;DHT22;57519;51.494;-2.626;2022-11-25T17:11:28;9.23;90.10
70154;DHT22;57519;51.494;-2.626;2022-11-25T17:13:57;9.08;90.98
70154;DHT22;57519;51.494;-2.626;2022-11-25T17:16:25;9.02;91.52
70154;DHT22;57519;51.494;-2.626;2022-11-25T17:18:53;8.84;91.90
70154;DHT22;57519;51.494;-2.626;2022-11-25T17:21:19;8.77;92.26
70154;DHT22;57519;51.494;-2.626;2022-11-25T17:23:45;8.67;92.34
70154;DHT22;57519;51.494;-2.626;2022-11-25T17:28:51;8.57;92.82
70154;DHT22;57519;51.494;-2.626;2022-11-25T17:31:17;8.65;92.37
70154;DHT22;57519;51.494;-2.626;2022-11-25T17:33:43;8.59;92.27
70154;DHT22;57519;51.494;-2.626;2022-11-25T17:36:12;8.61;92.14
70154;DHT22;57519;51.494;-2.626;2022-11-25T17:38:38;8.60;92.19
70154;DHT22;57519;51.494;-2.626;2022-11-25T17:41:11;8.50;92.22